createdAt,value
2023-01-11T00:02:51.325Z,24.3
2023-01-11T00:08:13.908Z,24.5
2023-01-11T00:13:21.152Z,25.1
2023-01-11T00:18:43.909Z,24.7
2023-01-11T00:24:06.015Z,24.3
2023-01-11T00:29:13.286Z,25.9
2023-01-11T00:34:36.101Z,26.8
2023-01-11T00:39:58.657Z,26.8
2023-01-11T00:45:21.666Z,25.8
2023-01-11T00:50:44.327Z,25.7
2023-01-11T00:56:07.147Z,26.8
2023-01-11T01:01:29.890Z,27
2023-01-11T01:06:36.336Z,26
2023-01-11T01:11:42.644Z,25
2023-01-11T01:16:49.556Z,24.4
2023-01-11T01:21:56.089Z,23.8
2023-01-11T01:27:18.454Z,24.2
2023-01-11T01:32:25.428Z,25.5
2023-01-11T01:37:47.388Z,26.4
2023-01-11T01:42:38.240Z,27
2023-01-11T01:47:13.651Z,26.8
2023-01-11T01:52:20.794Z,25.5
2023-01-11T01:57:27.091Z,24.8
2023-01-11T02:02:19.518Z,24.2
2023-01-11T02:07:26.751Z,23.8
2023-01-11T02:12:33.073Z,24.2
2023-01-11T02:17:24.605Z,25.6
2023-01-11T02:22:31.922Z,26.3
2023-01-11T02:27:39.361Z,26.6
2023-01-11T02:32:46.286Z,25.5
2023-01-11T02:37:53.298Z,24.9
2023-01-11T02:43:15.936Z,26.2
2023-01-11T02:48:08.125Z,26.9
2023-01-11T02:53:15.099Z,26.8
2023-01-11T02:58:38.121Z,25.4
2023-01-11T03:03:45.264Z,24.8
2023-01-11T03:08:52.572Z,24.4
2023-01-11T03:13:59.735Z,25.4
2023-01-11T03:19:07.308Z,26.5
2023-01-11T03:24:29.857Z,26.9
2023-01-11T03:29:52.401Z,26.7
2023-01-11T03:35:14.618Z,25
2023-01-11T03:40:36.956Z,24.5
2023-01-11T03:45:44.029Z,24.6
2023-01-11T03:51:06.616Z,26.1
2023-01-11T03:56:29.002Z,26.9
2023-01-11T04:01:51.462Z,26.9
2023-01-11T04:06:58.531Z,25.5
2023-01-11T04:12:05.620Z,24.8
2023-01-11T04:17:12.786Z,24.3
2023-01-11T04:22:19.679Z,23.8
2023-01-11T04:27:42.146Z,24.3
2023-01-11T04:32:49.621Z,25.9
2023-01-11T04:38:12.175Z,26.8
2023-01-11T04:43:37.879Z,26.9
2023-01-11T04:49:00.755Z,25.8
2023-01-11T04:54:22.786Z,24.9
2023-01-11T04:59:46.456Z,24.3
2023-01-11T05:05:09.446Z,23.8
2023-01-11T05:10:31.024Z,24.3
2023-01-11T05:15:53.249Z,25.3
2023-01-11T05:20:44.595Z,24.7
2023-01-11T05:25:51.503Z,24.3
2023-01-11T05:30:58.896Z,25.8
2023-01-11T05:36:05.556Z,26.7
2023-01-11T05:41:28.008Z,26.9
2023-01-11T05:46:50.631Z,25.8
2023-01-11T05:52:12.493Z,24.9
2023-01-11T05:57:35.496Z,24.6
2023-01-11T06:02:58.567Z,25.1
2023-01-11T06:08:20.783Z,26.4
2023-01-11T06:13:43.180Z,26.9
2023-01-11T06:18:51.275Z,26.8
2023-01-11T06:23:57.711Z,25.1
2023-01-11T06:29:22.683Z,24.7
2023-01-11T06:34:45.768Z,23.9
2023-01-11T06:40:07.575Z,23.6
2023-01-11T06:45:29.877Z,23.3
2023-01-11T06:50:55.620Z,23
2023-01-11T06:56:18.643Z,23.8
2023-01-11T07:01:43.688Z,25.4
2023-01-11T07:07:07.041Z,25.6
2023-01-11T07:12:29.267Z,24.6
2023-01-11T07:17:51.849Z,24
2023-01-11T07:23:14.275Z,23.5
2023-01-11T07:28:35.807Z,23.1
2023-01-11T07:34:16.029Z,23.4
2023-01-11T07:40:11.768Z,24.4
2023-01-11T07:45:45.213Z,25.6
2023-01-11T07:50:53.960Z,25
2023-01-11T07:56:16.848Z,23.8
2023-01-11T08:01:38.906Z,23.4
2023-01-11T08:07:02.910Z,23
2023-01-11T08:12:26.230Z,22.8
2023-01-11T08:17:50.492Z,23.3
2023-01-11T08:23:13.166Z,25.1
2023-01-11T08:28:36.566Z,25.6
2023-01-11T08:33:59.486Z,24.8
2023-01-11T08:39:22.212Z,23.8
2023-01-11T08:44:51.448Z,23.4
2023-01-11T08:50:13.870Z,22.9
2023-01-11T08:55:36.535Z,23.1
2023-01-11T09:01:00.371Z,23.8
2023-01-11T09:06:37.933Z,25.3
2023-01-11T09:12:00.143Z,24.9
2023-01-11T09:17:23.822Z,23.8
2023-01-11T09:22:45.954Z,23.4
2023-01-11T09:27:37.254Z,22.9
2023-01-11T09:33:00.996Z,22.6
2023-01-11T09:38:24.517Z,22.3
2023-01-11T09:43:48.213Z,22.1
2023-01-11T09:48:58.064Z,21.8
2023-01-11T09:54:20.957Z,21.6
2023-01-11T09:59:44.226Z,21.4
2023-01-11T10:05:07.639Z,21.2
2023-01-11T10:21:22.491Z,21
2023-01-11T10:26:45.735Z,20.4
2023-01-11T10:32:08.310Z,20.3
2023-01-11T10:37:30.937Z,20.1
2023-01-11T10:42:54.008Z,20.1
2023-01-11T10:48:01.003Z,19.9
2023-01-11T10:53:27.528Z,19.8
2023-01-11T10:59:10.391Z,19.8
2023-01-11T11:04:20.247Z,19.6
2023-01-11T11:09:27.989Z,19.6
2023-01-11T11:14:51.587Z,19.4
2023-01-11T11:19:59.916Z,19.3
2023-01-11T11:25:23.107Z,19.3
2023-01-11T11:30:45.996Z,19.3
2023-01-11T11:35:53.917Z,19.2
2023-01-11T11:41:17.413Z,19.1
2023-01-11T11:46:40.700Z,19
2023-01-11T11:52:23.360Z,18.9
2023-01-11T11:57:46.331Z,18.9
2023-01-11T12:03:09.418Z,18.9
2023-01-11T12:08:27.259Z,18.9
2023-01-11T12:13:53.475Z,18.8
2023-01-11T12:19:16.391Z,18.8
2023-01-11T12:24:38.716Z,18.8
2023-01-11T12:30:01.730Z,18.8
2023-01-11T12:44:50.789Z,18.6
2023-01-11T12:50:14.176Z,18.6
2023-01-11T12:55:36.973Z,18.6
2023-01-11T13:01:01.859Z,18.5
2023-01-11T13:06:29.232Z,18.4
2023-01-11T13:11:52.394Z,18.6
2023-01-11T13:16:59.581Z,18.5
2023-01-11T13:22:41.325Z,18.4
2023-01-11T13:28:06.749Z,18.4
2023-01-11T13:33:31.663Z,18.4
2023-01-11T13:39:07.901Z,18.4
2023-01-11T13:44:30.878Z,18.4
2023-01-11T13:49:37.526Z,18.4
2023-01-11T13:55:03.191Z,18.3
2023-01-11T14:00:27.834Z,18.3
2023-01-11T14:05:50.677Z,18.3
2023-01-11T14:11:13.738Z,18.3
2023-01-11T14:16:37.146Z,18.3
2023-01-11T14:21:59.211Z,18.3
2023-01-11T14:27:22.725Z,18.2
2023-01-11T14:32:46.559Z,18.2
2023-01-11T14:38:08.813Z,18.2
2023-01-11T14:43:41.123Z,18.1
2023-01-11T14:49:05.013Z,20.2
2023-01-11T14:54:49.146Z,22.9
2023-01-11T15:00:11.407Z,24.8
2023-01-11T15:05:37.967Z,25.8
2023-01-11T15:10:59.972Z,26.4
2023-01-11T15:16:22.802Z,26.6
2023-01-11T15:21:32.447Z,26.8
2023-01-11T15:26:56.454Z,27.1
2023-01-11T15:32:19.098Z,27.5
2023-01-11T15:37:42.489Z,27.9
2023-01-11T15:42:48.688Z,28.6
2023-01-11T15:48:11.412Z,28.7
2023-01-11T15:53:34.999Z,28.5
2023-01-11T15:58:42.293Z,28.1
2023-01-11T16:04:06.576Z,28.3
2023-01-11T16:09:14.307Z,28.3
2023-01-11T16:14:20.558Z,29.1
2023-01-11T16:19:28.826Z,29.4
2023-01-11T16:24:05.511Z,29.4
2023-01-11T16:29:30.178Z,29.4
2023-01-11T16:34:39.438Z,29.4
2023-01-11T16:40:01.854Z,29
2023-01-11T16:45:24.406Z,29.2
2023-01-11T16:50:47.465Z,28.7
2023-01-11T16:55:54.911Z,28.9
2023-01-11T17:01:02.370Z,28.8
2023-01-11T17:06:34.529Z,28.9
2023-01-11T17:11:47.779Z,28.6
2023-01-11T17:16:55.953Z,28.6
2023-01-11T17:22:19.290Z,29
2023-01-11T17:27:44.877Z,28.9
2023-01-11T17:33:07.685Z,29.4
2023-01-11T17:38:14.396Z,29.8
2023-01-11T17:43:40.922Z,29.8
2023-01-11T17:49:04.331Z,30
2023-01-11T17:54:03.045Z,30.3
2023-01-11T17:59:10.178Z,30.3
2023-01-11T18:04:35.406Z,30.8
2023-01-11T18:09:59.290Z,31
2023-01-11T18:15:08.511Z,31.1
2023-01-11T18:20:34.480Z,31
2023-01-11T18:25:58.510Z,30.9
2023-01-11T18:31:23.805Z,30.9
2023-01-11T18:36:32.491Z,30.8
2023-01-11T18:41:43.914Z,30.9
2023-01-11T18:47:09.383Z,31.3
2023-01-11T18:52:35.530Z,31.3
2023-01-11T18:57:59.907Z,31.5
2023-01-11T19:03:45.954Z,31.6
2023-01-11T19:09:14.446Z,31.4
2023-01-11T19:14:41.181Z,31.4
2023-01-11T19:20:08.628Z,31.7
2023-01-11T19:25:43.421Z,31.5
2023-01-11T19:31:02.415Z,31.7
2023-01-11T19:36:18.316Z,31.9
2023-01-11T19:41:35.897Z,32.1
2023-01-11T19:47:12.263Z,31.9
2023-01-11T19:52:43.462Z,31.9
2023-01-11T19:57:55.144Z,31.8
2023-01-11T20:03:24.002Z,31.6
2023-01-11T20:08:50.764Z,31.8
2023-01-11T20:14:00.093Z,31.9
2023-01-11T20:19:27.313Z,32
2023-01-11T20:24:22.795Z,31.9
2023-01-11T20:29:49.139Z,31.6
2023-01-11T20:35:41.165Z,31.6
2023-01-11T20:41:06.992Z,31.1
2023-01-11T20:46:18.190Z,30.8
2023-01-11T20:51:27.325Z,30.6
2023-01-11T20:56:51.079Z,30.3
2023-01-11T21:02:16.919Z,30.2
2023-01-11T21:07:41.954Z,30.3
2023-01-11T21:12:49.327Z,30.2
2023-01-11T21:18:12.586Z,29.9
2023-01-11T21:23:36.615Z,29.6
2023-01-11T21:28:44.644Z,29.3
2023-01-11T21:34:07.789Z,29
2023-01-11T21:39:30.751Z,28.9
2023-01-11T21:44:53.827Z,28.6
2023-01-11T21:50:16.490Z,27.8
2023-01-11T21:55:39.884Z,27.1
2023-01-11T22:00:46.327Z,26.8
2023-01-11T22:05:38.148Z,26.2
2023-01-11T22:11:12.574Z,26.1
2023-01-11T22:16:35.328Z,25.5
2023-01-11T22:21:58.197Z,25.6
2023-01-11T22:27:21.525Z,25.1
2023-01-11T22:32:44.605Z,25.1
2023-01-11T22:38:07.506Z,24.6
2023-01-11T22:43:29.716Z,25.8
2023-01-11T22:48:52.591Z,26.8
2023-01-11T22:54:15.298Z,27.5
2023-01-11T22:59:06.897Z,26.9
2023-01-11T23:04:14.917Z,26
2023-01-11T23:09:37.571Z,25.6
2023-01-11T23:14:59.854Z,25.1
2023-01-11T23:20:08.749Z,24.8
2023-01-11T23:25:31.310Z,24.5
2023-01-11T23:30:39.010Z,24.8
2023-01-11T23:35:45.776Z,25.5
2023-01-11T23:40:53.065Z,27
2023-01-11T23:46:16.045Z,27.1
2023-01-11T23:51:37.907Z,26.2
2023-01-11T23:57:01.018Z,25.4
